Nearby METAR Reports


KPVF - Placerville, California, USA
Distance from station: E 5mi, 14km
Updated: 03/04/2024 8:35pm
Overcast
Overcast
 Wind from SSE
Wind: SSE 3 mph , 6 km/h
Temperature: 41°F , 5°C
Dew Point: 34°F , 1°C
Humidity: 76%
Barometer: 30.10 inHg , 1019.3 hPa
Clouds: Overcast
Visibility: 10 miles , 16 km
Cloud details: Overcast 6000 ft
2024/03/05 04:35 KPVF 050435Z AUTO 15003KT 10SM OVC060 05/01 A3010 RMK AO1
KAUN - Auburn, California, USA
Distance from station: NE 37mi, 14km
Updated: 03/04/2024 8:35pm
Overcast
Overcast
 Wind from ESE
Wind: ESE 6 mph , 9 km/h
Temperature: 45°F , 7°C
Wind Chill: 42°F , 6°C
Dew Point: 37°F , 3°C
Humidity: 76%
Barometer: 30.09 inHg , 1019 hPa
Clouds: Overcast
Visibility: 10 miles , 16 km
Cloud details: Overcast 7000 ft
2024/03/05 04:35 KAUN 050435Z AUTO 11005KT 10SM OVC070 07/03 A3009 RMK A01
 
KMHR - Mather, California, USA
Distance from station: NNW 30mi, 23km
Updated: 03/04/2024 8:35pm
Clear
Clear
 Wind from ESE
Wind: ESE 5 mph , 7 km/h
Temperature: 46°F , 8°C
Wind Chill: 44°F , 7°C
Dew Point: 39°F , 4°C
Humidity: 76%
Barometer: 30.09 inHg , 1019 hPa
Clouds: Clear
Visibility: 10 miles , 16 km
2024/03/05 04:35 KMHR 050435Z AUTO 12004KT 10SM CLR 08/04 A3009 RMK AO2
KSAC - Sacramento, California, USA
Distance from station: WNW 45mi, 50km
Updated: 03/04/2024 7:53pm
Clear
Clear
 Wind from calm
Wind: Calm
Temperature: 52°F , 11°C
Dew Point: 39°F , 4°C
Humidity: 62%
Barometer: 30.10 inHg , 1019.3 hPa
Clouds: Clear
Visibility: 10 miles , 16 km
2024/03/05 03:53 KSAC 050353Z 00000KT 10SM CLR 11/04 A3010 RMK AO2 SLP193 T01060044
 
KSMF - Sacramento Metro, California, USA
Distance from station: NNE 50mi, 51km
Updated: 03/04/2024 7:53pm
Partly cloudy
Partly cloudy
 Wind from SE
Wind: SE 6 mph , 9 km/h
Temperature: 52°F , 11°C
Dew Point: 41°F , 5°C
Humidity: 67%
Barometer: 30.10 inHg , 1019.3 hPa
Clouds: Partly cloudy
Visibility: 10 miles , 16 km
Cloud details: Partly cloudy 8000 ft
2024/03/05 03:53 KSMF 050353Z 13005KT 10SM SCT080 11/05 A3010 RMK AO2 SLP191 T01110050
KBAB - Beale AFB - Marysville, California, USA
Distance from station: NW 21mi, 34km
Updated: 03/04/2024 7:55pm
Overcast
Overcast
 Wind from E
Wind: E 8 mph , 13 km/h
Temperature: 50°F , 10°C
Wind Chill: 47°F , 8°C
Dew Point: 41°F , 5°C
Humidity: 71%
Barometer: 30.08 inHg , 1018.6 hPa
Clouds: Overcast
Visibility: 10 miles , 16 km
Cloud details: Mostly cloudy 6500 ft
Overcast 9000 ft
2024/03/05 03:55 KBAB 050355Z 10007KT 10SM BKN065 OVC090 10/05 A3008 RMK AO2A SLP189 T01010049 RVRNO $
 
KOVE - Oroville, California, USA
Distance from station: ESE 80mi, 43km
Updated: 03/04/2024 7:53pm
Overcast
Overcast
 Wind from E
Wind: E 6 mph , 9 km/h
Temperature: 52°F , 11°C
Dew Point: 39°F , 4°C
Humidity: 62%
Barometer: 30.10 inHg , 1019.3 hPa
Clouds: Overcast
Visibility: 10 miles , 16 km
Cloud details: Overcast 5000 ft
2024/03/05 03:53 KOVE 050353Z AUTO 10005KT 10SM OVC050 11/04 A3010 RMK AO2 SLP197 T01060044
KRDD - Redding, California, USA
Distance from station: SSE 225mi, 44km
Updated: 03/04/2024 7:53pm
Light rain, Mist, Overcast
Light rain, Mist, Overcast
 Wind from calm
Wind: Calm
Temperature: 46°F , 8°C
Dew Point: 43°F , 6°C
Humidity: 87%
Barometer: 30.03 inHg , 1016.9 hPa
Summary: Light rain, Mist
Clouds: Overcast
Visibility: 6 miles , 10 km
Cloud details: Overcast 2600 ft
2024/03/05 03:53 KRDD 050353Z AUTO 00000KT 6SM -RA BR OVC026 08/06 A3003 RMK AO2 SLP171 P0005 T00780061
 
KTRK - Tahoe-Truckee, California, USA
Distance from station: NW 60mi, 49km
Updated: 03/04/2024 8:35pm
Overcast
Overcast
 Wind from S
Wind: S 9 mph , 15 km/h
Temperature: 30°F , -1°C
Wind Chill: 22°F , -6°C
Dew Point: 23°F , -5°C
Humidity: 75%
Barometer: 30.00 inHg , 1015.9 hPa
Clouds: Overcast
Visibility: 10 miles , 16 km
Cloud details: Overcast 3300 ft
2024/03/05 04:35 KTRK 050435Z AUTO 17008KT 10SM OVC033 M01/M05 A3000 RMK AO2
KTVL - South Lake Tahoe, California, USA
Distance from station: N 45mi, 44km
Updated: 03/04/2024 7:53pm
Few Clouds
Few Clouds
 Wind from S
Wind: S 10 mph , 17 km/h, Gust: 20 mph , 31 km/h
Temperature: 28°F , -2°C
Wind Chill: 19°F , -7°C
Dew Point: 21°F , -6°C
Humidity: 74%
Barometer: 29.99 inHg , 1015.6 hPa
Clouds: Few Clouds
Visibility: 10 miles , 16 km
Cloud details: Few Clouds 2800 ft
Few Clouds 3500 ft
2024/03/05 03:53 KTVL 050353Z AUTO 18009G17KT 10SM FEW028 FEW035 M02/M06 A2999 RMK AO2 SLP173 T10221061
 
KBLU - EMIGRANT GAP, California, USA
Distance from station: NNW 31mi, 50km
Updated: 03/04/2024 7:52pm
Overcast
Overcast
 Wind from SSE
Wind: SSE 6 mph , 9 km/h
Temperature: 28°F , -2°C
Wind Chill: 21°F , -6°C
Dew Point: 27°F , -3°C
Humidity: 93%
Barometer: 30.03 inHg , 1016.9 hPa
Clouds: Overcast
Visibility: 10 miles , 16 km
Cloud details: Mostly cloudy 2600 ft
Overcast 3600 ft
2024/03/05 03:52 KBLU 050352Z AUTO 15005KT 10SM BKN026 OVC036 M02/M03 A3003 RMK AO2 SLP199 T10171028
KACV - Eureka, California, USA
Distance from station: ENE 387mi, 19km
Updated: 03/04/2024 7:53pm
Overcast
Overcast
 Wind from SE
Wind: SE 10 mph , 17 km/h
Temperature: 46°F , 8°C
Wind Chill: 41°F , 5°C
Dew Point: 43°F , 6°C
Humidity: 87%
Barometer: 29.96 inHg , 1014.6 hPa
Clouds: Overcast
Visibility: 10 miles , 16 km
Cloud details: Mostly cloudy 4300 ft
Mostly cloudy 5000 ft
Overcast 8500 ft
2024/03/05 03:53 KACV 050353Z AUTO 13009KT 10SM BKN043 BKN050 OVC085 08/06 A2996 RMK AO2 RAE23 SLP152 P0001 T00780056